sensor_id;sensor_type;location;lat;lon;timestamp;P1;durP1;ratioP1;P2;durP2;ratioP2
4430;SDS011;2228;48.140;11.488;2023-06-26T16:39:40;9.37;;;5.93;;
4430;SDS011;2228;48.140;11.488;2023-06-26T16:42:07;8.80;;;5.80;;
4430;SDS011;2228;48.140;11.488;2023-06-26T16:44:35;6.90;;;5.97;;
4430;SDS011;2228;48.140;11.488;2023-06-26T16:47:01;8.40;;;5.50;;
4430;SDS011;2228;48.140;11.488;2023-06-26T16:49:29;7.05;;;5.95;;
4430;SDS011;2228;48.140;11.488;2023-06-26T16:51:56;7.28;;;5.90;;
4430;SDS011;2228;48.140;11.488;2023-06-26T16:54:23;8.97;;;5.70;;
4430;SDS011;2228;48.140;11.488;2023-06-26T16:56:51;7.68;;;5.60;;
4430;SDS011;2228;48.140;11.488;2023-06-26T16:59:19;10.45;;;6.05;;
4430;SDS011;2228;48.140;11.488;2023-06-26T17:01:46;6.90;;;5.93;;
4430;SDS011;2228;48.140;11.488;2023-06-26T17:04:13;7.10;;;5.40;;
4430;SDS011;2228;48.140;11.488;2023-06-26T17:06:40;7.75;;;5.85;;
4430;SDS011;2228;48.140;11.488;2023-06-26T17:09:09;7.68;;;5.60;;
4430;SDS011;2228;48.140;11.488;2023-06-26T17:11:36;7.55;;;6.00;;
4430;SDS011;2228;48.140;11.488;2023-06-26T17:14:04;7.18;;;6.13;;
4430;SDS011;2228;48.140;11.488;2023-06-26T17:16:31;7.45;;;5.60;;
4430;SDS011;2228;48.140;11.488;2023-06-26T17:18:59;9.35;;;5.82;;
4430;SDS011;2228;48.140;11.488;2023-06-26T17:21:35;8.07;;;5.75;;
4430;SDS011;2228;48.140;11.488;2023-06-26T17:24:03;8.85;;;6.40;;
4430;SDS011;2228;48.140;11.488;2023-06-26T17:26:30;12.23;;;6.93;;
4430;SDS011;2228;48.140;11.488;2023-06-26T17:28:59;9.90;;;7.15;;
4430;SDS011;2228;48.140;11.488;2023-06-26T17:31:28;8.70;;;6.65;;
4430;SDS011;2228;48.140;11.488;2023-06-26T17:33:56;9.00;;;6.60;;
4430;SDS011;2228;48.140;11.488;2023-06-26T17:36:23;9.90;;;6.68;;
4430;SDS011;2228;48.140;11.488;2023-06-26T17:38:50;9.25;;;6.57;;
4430;SDS011;2228;48.140;11.488;2023-06-26T17:41:18;10.20;;;7.07;;
4430;SDS011;2228;48.140;11.488;2023-06-26T17:43:45;11.10;;;7.63;;
4430;SDS011;2228;48.140;11.488;2023-06-26T17:46:12;11.50;;;6.40;;
4430;SDS011;2228;48.140;11.488;2023-06-26T17:48:41;9.32;;;6.68;;
4430;SDS011;2228;48.140;11.488;2023-06-26T17:51:08;19.33;;;6.80;;
4430;SDS011;2228;48.140;11.488;2023-06-26T17:53:36;9.27;;;6.80;;
4430;SDS011;2228;48.140;11.488;2023-06-26T17:56:03;9.18;;;7.30;;
4430;SDS011;2228;48.140;11.488;2023-06-26T17:58:30;9.27;;;7.20;;
4430;SDS011;2228;48.140;11.488;2023-06-26T18:00:57;10.87;;;7.03;;
4430;SDS011;2228;48.140;11.488;2023-06-26T18:03:25;10.07;;;7.30;;
4430;SDS011;2228;48.140;11.488;2023-06-26T18:05:53;11.73;;;7.63;;
4430;SDS011;2228;48.140;11.488;2023-06-26T18:08:20;10.45;;;7.35;;
4430;SDS011;2228;48.140;11.488;2023-06-26T18:10:47;10.10;;;7.15;;
4430;SDS011;2228;48.140;11.488;2023-06-26T18:13:14;13.63;;;6.80;;
4430;SDS011;2228;48.140;11.488;2023-06-26T18:15:41;12.40;;;7.90;;
4430;SDS011;2228;48.140;11.488;2023-06-26T18:18:08;9.40;;;7.47;;
4430;SDS011;2228;48.140;11.488;2023-06-26T18:20:36;9.10;;;7.40;;
4430;SDS011;2228;48.140;11.488;2023-06-26T18:23:07;12.90;;;7.87;;
4430;SDS011;2228;48.140;11.488;2023-06-26T18:25:34;13.05;;;7.60;;
4430;SDS011;2228;48.140;11.488;2023-06-26T18:28:02;8.60;;;7.25;;
4430;SDS011;2228;48.140;11.488;2023-06-26T18:30:29;11.40;;;7.70;;
4430;SDS011;2228;48.140;11.488;2023-06-26T18:32:56;9.03;;;7.07;;
4430;SDS011;2228;48.140;11.488;2023-06-26T18:35:23;15.13;;;7.63;;
4430;SDS011;2228;48.140;11.488;2023-06-26T18:37:51;9.20;;;6.97;;
4430;SDS011;2228;48.140;11.488;2023-06-26T18:40:19;10.75;;;7.22;;
4430;SDS011;2228;48.140;11.488;2023-06-26T18:42:47;10.37;;;7.40;;
4430;SDS011;2228;48.140;11.488;2023-06-26T18:45:15;10.15;;;7.30;;
4430;SDS011;2228;48.140;11.488;2023-06-26T18:47:42;9.05;;;6.93;;
4430;SDS011;2228;48.140;11.488;2023-06-26T18:50:10;9.37;;;7.30;;
4430;SDS011;2228;48.140;11.488;2023-06-26T18:52:38;10.60;;;7.50;;
4430;SDS011;2228;48.140;11.488;2023-06-26T18:55:05;8.00;;;6.33;;
4430;SDS011;2228;48.140;11.488;2023-06-26T18:57:35;12.55;;;7.70;;
4430;SDS011;2228;48.140;11.488;2023-06-26T19:00:03;9.30;;;6.60;;
4430;SDS011;2228;48.140;11.488;2023-06-26T19:02:32;11.27;;;7.53;;
4430;SDS011;2228;48.140;11.488;2023-06-26T19:05:00;10.45;;;7.60;;
4430;SDS011;2228;48.140;11.488;2023-06-26T19:07:27;10.48;;;7.28;;
4430;SDS011;2228;48.140;11.488;2023-06-26T19:09:54;10.95;;;7.90;;
4430;SDS011;2228;48.140;11.488;2023-06-26T19:12:21;9.35;;;7.40;;
4430;SDS011;2228;48.140;11.488;2023-06-26T19:14:50;12.35;;;7.40;;
4430;SDS011;2228;48.140;11.488;2023-06-26T19:17:17;10.68;;;7.68;;
4430;SDS011;2228;48.140;11.488;2023-06-26T19:19:44;10.30;;;7.70;;
4430;SDS011;2228;48.140;11.488;2023-06-26T19:22:11;10.87;;;7.73;;
4430;SDS011;2228;48.140;11.488;2023-06-26T19:24:39;10.90;;;8.20;;
4430;SDS011;2228;48.140;11.488;2023-06-26T19:27:06;9.18;;;6.72;;
4430;SDS011;2228;48.140;11.488;2023-06-26T19:29:33;14.20;;;7.67;;
4430;SDS011;2228;48.140;11.488;2023-06-26T19:32:01;9.95;;;6.88;;
4430;SDS011;2228;48.140;11.488;2023-06-26T19:34:28;10.30;;;7.68;;
4430;SDS011;2228;48.140;11.488;2023-06-26T19:36:55;10.88;;;7.80;;
4430;SDS011;2228;48.140;11.488;2023-06-26T19:39:22;10.13;;;7.57;;
4430;SDS011;2228;48.140;11.488;2023-06-26T19:41:49;13.80;;;7.35;;
4430;SDS011;2228;48.140;11.488;2023-06-26T19:44:16;11.60;;;7.53;;
4430;SDS011;2228;48.140;11.488;2023-06-26T19:46:43;14.18;;;7.25;;
4430;SDS011;2228;48.140;11.488;2023-06-26T19:49:13;11.98;;;6.70;;
4430;SDS011;2228;48.140;11.488;2023-06-26T19:51:40;10.80;;;6.90;;
4430;SDS011;2228;48.140;11.488;2023-06-26T19:54:09;10.38;;;7.45;;
4430;SDS011;2228;48.140;11.488;2023-06-26T19:56:37;11.32;;;6.57;;
4430;SDS011;2228;48.140;11.488;2023-06-26T19:59:04;8.35;;;6.05;;
4430;SDS011;2228;48.140;11.488;2023-06-26T20:01:32;10.60;;;7.05;;
4430;SDS011;2228;48.140;11.488;2023-06-26T20:04:02;9.98;;;6.75;;
4430;SDS011;2228;48.140;11.488;2023-06-26T20:06:34;10.27;;;6.30;;
4430;SDS011;2228;48.140;11.488;2023-06-26T20:35:58;10.68;;;6.03;;
4430;SDS011;2228;48.140;11.488;2023-06-26T20:38:31;9.63;;;6.15;;
4430;SDS011;2228;48.140;11.488;2023-06-26T20:40:59;8.18;;;6.03;;
4430;SDS011;2228;48.140;11.488;2023-06-26T20:43:34;8.15;;;6.07;;
4430;SDS011;2228;48.140;11.488;2023-06-26T23:23:13;5.97;;;2.27;;
4430;SDS011;2228;48.140;11.488;2023-06-26T23:25:40;5.65;;;2.60;;
4430;SDS011;2228;48.140;11.488;2023-06-26T23:28:07;4.93;;;2.13;;
4430;SDS011;2228;48.140;11.488;2023-06-26T23:30:34;4.90;;;2.30;;
4430;SDS011;2228;48.140;11.488;2023-06-26T23:33:01;7.10;;;2.20;;
4430;SDS011;2228;48.140;11.488;2023-06-26T23:35:32;5.18;;;2.15;;
4430;SDS011;2228;48.140;11.488;2023-06-26T23:37:59;3.78;;;1.80;;
4430;SDS011;2228;48.140;11.488;2023-06-26T23:40:27;3.60;;;2.05;;
4430;SDS011;2228;48.140;11.488;2023-06-26T23:42:57;7.80;;;2.20;;
4430;SDS011;2228;48.140;11.488;2023-06-26T23:45:28;5.18;;;1.90;;
4430;SDS011;2228;48.140;11.488;2023-06-26T23:47:56;7.93;;;1.70;;
4430;SDS011;2228;48.140;11.488;2023-06-26T23:50:24;7.65;;;2.10;;
4430;SDS011;2228;48.140;11.488;2023-06-26T23:52:51;3.22;;;1.65;;
4430;SDS011;2228;48.140;11.488;2023-06-26T23:55:19;5.38;;;2.00;;
4430;SDS011;2228;48.140;11.488;2023-06-26T23:57:47;3.58;;;1.80;;
